sensor_id;sensor_type;location;lat;lon;timestamp;pressure;altitude;pressure_sealevel;temperature;humidity
69214;BME280;56325;47.030;18.518;2022-09-29T00:01:25;98972.34;;;14.18;85.92
69214;BME280;56325;47.030;18.518;2022-09-29T00:04:00;98978.94;;;14.09;85.93
69214;BME280;56325;47.030;18.518;2022-09-29T00:06:34;98988.47;;;13.72;87.78
69214;BME280;56325;47.030;18.518;2022-09-29T00:09:09;98978.72;;;13.66;88.70
69214;BME280;56325;47.030;18.518;2022-09-29T00:11:43;98980.19;;;13.72;88.10
69214;BME280;56325;47.030;18.518;2022-09-29T00:14:18;98977.63;;;13.80;87.53
69214;BME280;56325;47.030;18.518;2022-09-29T00:16:53;98977.66;;;13.74;88.05
69214;BME280;56325;47.030;18.518;2022-09-29T00:19:27;98978.91;;;13.79;87.80
69214;BME280;56325;47.030;18.518;2022-09-29T00:22:01;98982.16;;;13.77;87.67
69214;BME280;56325;47.030;18.518;2022-09-29T00:24:35;98985.94;;;13.80;87.39
69214;BME280;56325;47.030;18.518;2022-09-29T00:27:10;98984.84;;;13.89;86.84
69214;BME280;56325;47.030;18.518;2022-09-29T00:29:46;98989.88;;;13.90;86.75
69214;BME280;56325;47.030;18.518;2022-09-29T00:32:20;98982.38;;;13.85;86.79
69214;BME280;56325;47.030;18.518;2022-09-29T00:34:54;98980.91;;;13.78;87.10
69214;BME280;56325;47.030;18.518;2022-09-29T00:37:29;98979.41;;;13.77;87.08
69214;BME280;56325;47.030;18.518;2022-09-29T00:40:04;98974.63;;;13.78;87.03
69214;BME280;56325;47.030;18.518;2022-09-29T00:42:39;98972.13;;;13.80;86.98
69214;BME280;56325;47.030;18.518;2022-09-29T00:45:21;98972.87;;;13.81;86.95
69214;BME280;56325;47.030;18.518;2022-09-29T00:48:02;98964.34;;;13.78;87.16
69214;BME280;56325;47.030;18.518;2022-09-29T00:50:42;98957.22;;;13.89;86.88
69214;BME280;56325;47.030;18.518;2022-09-29T00:53:19;98959.97;;;13.89;86.49
69214;BME280;56325;47.030;18.518;2022-09-29T00:55:58;98947.16;;;13.91;86.39
69214;BME280;56325;47.030;18.518;2022-09-29T00:58:38;98955.94;;;13.90;86.47
69214;BME280;56325;47.030;18.518;2022-09-29T01:01:15;98951.25;;;13.85;86.91
69214;BME280;56325;47.030;18.518;2022-09-29T01:03:51;98952.03;;;13.80;87.05
69214;BME280;56325;47.030;18.518;2022-09-29T01:06:31;98950.53;;;13.78;87.31
69214;BME280;56325;47.030;18.518;2022-09-29T01:09:09;98953.28;;;13.78;87.41
69214;BME280;56325;47.030;18.518;2022-09-29T01:11:44;98946.03;;;13.75;87.50
69214;BME280;56325;47.030;18.518;2022-09-29T01:14:19;98935.25;;;13.72;87.91
69214;BME280;56325;47.030;18.518;2022-09-29T01:16:56;98942.47;;;13.81;87.66
69214;BME280;56325;47.030;18.518;2022-09-29T01:19:38;98945.66;;;13.90;87.39
69214;BME280;56325;47.030;18.518;2022-09-29T01:22:26;98945.59;;;13.96;87.11
69214;BME280;56325;47.030;18.518;2022-09-29T01:25:26;98934.56;;;13.96;87.15
69214;BME280;56325;47.030;18.518;2022-09-29T01:28:43;98927.31;;;13.87;87.79
69214;BME280;56325;47.030;18.518;2022-09-29T01:31:29;98932.25;;;14.00;87.58
69214;BME280;56325;47.030;18.518;2022-09-29T01:34:13;98938.78;;;14.02;87.52
69214;BME280;56325;47.030;18.518;2022-09-29T01:37:00;98944.06;;;14.00;87.71
69214;BME280;56325;47.030;18.518;2022-09-29T01:39:42;98953.59;;;14.05;87.38
69214;BME280;56325;47.030;18.518;2022-09-29T01:42:22;98946.78;;;14.06;87.42
69214;BME280;56325;47.030;18.518;2022-09-29T01:45:08;98942.03;;;14.06;87.43
69214;BME280;56325;47.030;18.518;2022-09-29T01:47:50;98953.34;;;14.03;88.26
69214;BME280;56325;47.030;18.518;2022-09-29T01:50:28;98945.84;;;13.98;88.63
69214;BME280;56325;47.030;18.518;2022-09-29T01:53:09;98941.03;;;14.04;88.54
69214;BME280;56325;47.030;18.518;2022-09-29T01:55:47;98933.06;;;13.95;89.00
69214;BME280;56325;47.030;18.518;2022-09-29T01:58:26;98943.41;;;13.89;89.63
69214;BME280;56325;47.030;18.518;2022-09-29T02:01:05;98957.78;;;14.17;88.40
69214;BME280;56325;47.030;18.518;2022-09-29T02:03:45;98963.84;;;14.10;88.42
69214;BME280;56325;47.030;18.518;2022-09-29T02:06:22;98974.19;;;14.04;88.82
69214;BME280;56325;47.030;18.518;2022-09-29T02:09:01;98976.12;;;14.15;88.79
69214;BME280;56325;47.030;18.518;2022-09-29T02:11:38;98973.78;;;13.89;90.58
69214;BME280;56325;47.030;18.518;2022-09-29T02:14:17;98970.78;;;13.87;90.68
69214;BME280;56325;47.030;18.518;2022-09-29T02:16:54;98959.91;;;14.00;89.99
69214;BME280;56325;47.030;18.518;2022-09-29T02:19:36;98958.16;;;13.97;89.54
69214;BME280;56325;47.030;18.518;2022-09-29T02:22:11;98960.28;;;13.85;90.36
69214;BME280;56325;47.030;18.518;2022-09-29T02:24:47;98963.50;;;13.89;90.08
69214;BME280;56325;47.030;18.518;2022-09-29T02:27:22;98972.16;;;13.74;91.06
69214;BME280;56325;47.030;18.518;2022-09-29T02:29:57;98969.94;;;13.62;91.84
69214;BME280;56325;47.030;18.518;2022-09-29T02:32:32;98969.63;;;13.76;91.26
69214;BME280;56325;47.030;18.518;2022-09-29T02:35:11;98966.34;;;13.78;90.77
69214;BME280;56325;47.030;18.518;2022-09-29T02:37:55;98967.56;;;13.83;90.75
69214;BME280;56325;47.030;18.518;2022-09-29T02:40:41;98961.25;;;13.88;90.65
69214;BME280;56325;47.030;18.518;2022-09-29T02:43:43;98953.44;;;13.92;90.65
69214;BME280;56325;47.030;18.518;2022-09-29T02:46:32;98935.75;;;14.06;89.95
69214;BME280;56325;47.030;18.518;2022-09-29T02:49:30;98949.09;;;14.02;90.18
69214;BME280;56325;47.030;18.518;2022-09-29T02:52:17;98958.88;;;14.03;90.20
69214;BME280;56325;47.030;18.518;2022-09-29T02:54:59;98959.94;;;13.94;90.68
69214;BME280;56325;47.030;18.518;2022-09-29T02:57:43;98961.47;;;13.90;91.27
69214;BME280;56325;47.030;18.518;2022-09-29T03:00:20;98951.63;;;14.00;90.85
69214;BME280;56325;47.030;18.518;2022-09-29T03:02:55;98945.56;;;14.01;90.87
69214;BME280;56325;47.030;18.518;2022-09-29T03:05:29;98950.81;;;14.05;90.57
69214;BME280;56325;47.030;18.518;2022-09-29T03:08:05;98941.00;;;14.09;90.67
69214;BME280;56325;47.030;18.518;2022-09-29T03:10:39;98933.41;;;14.16;90.62
69214;BME280;56325;47.030;18.518;2022-09-29T03:13:14;98919.63;;;14.10;90.78
69214;BME280;56325;47.030;18.518;2022-09-29T03:15:48;98918.87;;;14.09;90.87
69214;BME280;56325;47.030;18.518;2022-09-29T03:18:22;98920.97;;;13.98;91.58
69214;BME280;56325;47.030;18.518;2022-09-29T03:20:57;98912.97;;;14.24;90.93
69214;BME280;56325;47.030;18.518;2022-09-29T03:23:33;98921.69;;;14.34;90.58
69214;BME280;56325;47.030;18.518;2022-09-29T03:26:07;98918.84;;;14.15;90.95
69214;BME280;56325;47.030;18.518;2022-09-29T03:28:42;98911.97;;;13.92;92.57
69214;BME280;56325;47.030;18.518;2022-09-29T03:31:16;98915.22;;;13.96;91.62
69214;BME280;56325;47.030;18.518;2022-09-29T03:33:50;98916.69;;;13.67;93.17
69214;BME280;56325;47.030;18.518;2022-09-29T03:36:24;98919.34;;;13.84;91.38
69214;BME280;56325;47.030;18.518;2022-09-29T03:39:00;98913.50;;;13.52;91.87
69214;BME280;56325;47.030;18.518;2022-09-29T03:41:34;98922.53;;;13.52;90.89
69214;BME280;56325;47.030;18.518;2022-09-29T15:14:24;99255.59;;;16.11;78.88
69214;BME280;56325;47.030;18.518;2022-09-29T15:17:32;99249.91;;;16.22;77.53
69214;BME280;56325;47.030;18.518;2022-09-29T15:20:36;99264.59;;;16.17;76.80
69214;BME280;56325;47.030;18.518;2022-09-29T15:24:02;99270.19;;;16.12;77.80
69214;BME280;56325;47.030;18.518;2022-09-29T15:27:05;99283.13;;;16.03;78.77
69214;BME280;56325;47.030;18.518;2022-09-29T15:30:14;99283.25;;;15.92;79.59
69214;BME280;56325;47.030;18.518;2022-09-29T15:33:19;99286.19;;;16.00;79.00
69214;BME280;56325;47.030;18.518;2022-09-29T15:36:20;99286.72;;;15.98;78.97
69214;BME280;56325;47.030;18.518;2022-09-29T15:39:41;99298.56;;;15.99;79.03
69214;BME280;56325;47.030;18.518;2022-09-29T15:42:40;99297.34;;;15.94;78.71
69214;BME280;56325;47.030;18.518;2022-09-29T15:45:51;99302.13;;;15.94;78.26
69214;BME280;56325;47.030;18.518;2022-09-29T15:49:06;99289.19;;;15.78;80.50
69214;BME280;56325;47.030;18.518;2022-09-29T15:52:12;99285.88;;;15.79;80.83
69214;BME280;56325;47.030;18.518;2022-09-29T15:55:13;99291.44;;;15.79;80.35
69214;BME280;56325;47.030;18.518;2022-09-29T15:58:34;99288.78;;;15.62;81.68
69214;BME280;56325;47.030;18.518;2022-09-29T16:01:34;99287.28;;;15.61;82.03
69214;BME280;56325;47.030;18.518;2022-09-29T16:04:33;99291.06;;;15.64;81.95
69214;BME280;56325;47.030;18.518;2022-09-29T16:07:33;99289.84;;;15.59;81.72
69214;BME280;56325;47.030;18.518;2022-09-29T16:10:41;99306.69;;;15.61;81.71
69214;BME280;56325;47.030;18.518;2022-09-29T16:13:50;99283.91;;;15.44;83.47
69214;BME280;56325;47.030;18.518;2022-09-29T19:27:14;99429.47;;;12.88;86.82
69214;BME280;56325;47.030;18.518;2022-09-29T19:39:57;99426.53;;;13.08;85.83
69214;BME280;56325;47.030;18.518;2022-09-29T19:45:18;99439.78;;;12.93;86.63
69214;BME280;56325;47.030;18.518;2022-09-29T19:47:53;99445.06;;;13.02;85.97
69214;BME280;56325;47.030;18.518;2022-09-29T19:50:29;99445.50;;;13.38;90.61
69214;BME280;56325;47.030;18.518;2022-09-29T19:53:21;99453.31;;;15.01;98.51
69214;BME280;56325;47.030;18.518;2022-09-29T19:56:06;99429.16;;;15.54;95.06
69214;BME280;56325;47.030;18.518;2022-09-29T19:58:41;99431.78;;;14.72;86.10
69214;BME280;56325;47.030;18.518;2022-09-29T20:01:17;99436.06;;;14.23;83.68
69214;BME280;56325;47.030;18.518;2022-09-29T20:03:52;99430.53;;;13.78;83.42
69214;BME280;56325;47.030;18.518;2022-09-29T20:06:27;99428.25;;;13.65;85.10
69214;BME280;56325;47.030;18.518;2022-09-29T20:09:02;99425.97;;;13.64;84.86
69214;BME280;56325;47.030;18.518;2022-09-29T20:11:37;99422.22;;;13.61;84.89
69214;BME280;56325;47.030;18.518;2022-09-29T20:14:13;99432.69;;;13.35;85.09
69214;BME280;56325;47.030;18.518;2022-09-29T20:16:50;99431.88;;;13.18;85.85
69214;BME280;56325;47.030;18.518;2022-09-29T20:19:30;99439.16;;;13.21;86.13
69214;BME280;56325;47.030;18.518;2022-09-29T20:22:04;99428.34;;;13.17;86.00
69214;BME280;56325;47.030;18.518;2022-09-29T20:24:45;99416.41;;;13.48;91.12
69214;BME280;56325;47.030;18.518;2022-09-29T20:27:19;99416.19;;;14.69;93.51
69214;BME280;56325;47.030;18.518;2022-09-29T20:29:56;99423.00;;;14.12;85.31
69214;BME280;56325;47.030;18.518;2022-09-29T20:32:39;99433.78;;;13.76;84.98
69214;BME280;56325;47.030;18.518;2022-09-29T20:35:13;99449.34;;;13.68;84.61
69214;BME280;56325;47.030;18.518;2022-09-29T20:37:49;99519.97;;;13.86;86.67
69214;BME280;56325;47.030;18.518;2022-09-29T20:40:27;99598.19;;;14.20;89.11
69214;BME280;56325;47.030;18.518;2022-09-29T20:43:05;99601.81;;;13.67;87.15
69214;BME280;56325;47.030;18.518;2022-09-29T20:52:32;99559.47;;;13.38;89.37
69214;BME280;56325;47.030;18.518;2022-09-29T20:55:08;99531.62;;;13.05;91.89
69214;BME280;56325;47.030;18.518;2022-09-29T20:57:43;99535.16;;;13.00;92.58
69214;BME280;56325;47.030;18.518;2022-09-29T21:00:18;99511.38;;;13.13;91.92
69214;BME280;56325;47.030;18.518;2022-09-29T21:02:52;99494.62;;;13.23;90.92
69214;BME280;56325;47.030;18.518;2022-09-29T21:05:27;99500.38;;;13.19;90.73
69214;BME280;56325;47.030;18.518;2022-09-29T21:08:02;99498.87;;;13.18;91.20
69214;BME280;56325;47.030;18.518;2022-09-29T21:10:37;99496.41;;;13.26;90.80
69214;BME280;56325;47.030;18.518;2022-09-29T21:13:11;99492.38;;;13.27;91.10
69214;BME280;56325;47.030;18.518;2022-09-29T21:15:47;99496.44;;;13.31;91.09
69214;BME280;56325;47.030;18.518;2022-09-29T21:18:21;99501.97;;;13.37;91.04
69214;BME280;56325;47.030;18.518;2022-09-29T21:20:57;99491.47;;;13.47;90.73
69214;BME280;56325;47.030;18.518;2022-09-29T21:23:34;99493.00;;;13.53;89.59
69214;BME280;56325;47.030;18.518;2022-09-29T21:26:10;99488.38;;;13.28;91.45
69214;BME280;56325;47.030;18.518;2022-09-29T21:28:48;99473.09;;;13.38;91.17
69214;BME280;56325;47.030;18.518;2022-09-29T21:31:24;99467.87;;;13.51;90.27
69214;BME280;56325;47.030;18.518;2022-09-29T21:34:02;99477.44;;;13.50;90.15
69214;BME280;56325;47.030;18.518;2022-09-29T21:36:36;99480.72;;;13.60;89.73
69214;BME280;56325;47.030;18.518;2022-09-29T21:39:12;99467.66;;;13.60;89.62
69214;BME280;56325;47.030;18.518;2022-09-29T21:41:49;99473.69;;;13.64;89.52
69214;BME280;56325;47.030;18.518;2022-09-29T21:44:23;99471.44;;;13.68;89.39
69214;BME280;56325;47.030;18.518;2022-09-29T21:46:58;99477.22;;;13.65;89.62
69214;BME280;56325;47.030;18.518;2022-09-29T21:49:32;99498.09;;;13.71;89.43
69214;BME280;56325;47.030;18.518;2022-09-29T21:52:06;99507.66;;;13.82;88.69
69214;BME280;56325;47.030;18.518;2022-09-29T21:54:42;99481.47;;;13.60;90.15
69214;BME280;56325;47.030;18.518;2022-09-29T21:57:17;99475.44;;;13.62;90.26
69214;BME280;56325;47.030;18.518;2022-09-29T21:59:51;99463.41;;;13.70;90.13
69214;BME280;56325;47.030;18.518;2022-09-29T22:02:27;99466.44;;;13.72;89.85
69214;BME280;56325;47.030;18.518;2022-09-29T22:05:02;99478.78;;;13.83;89.60
69214;BME280;56325;47.030;18.518;2022-09-29T22:07:36;99483.53;;;13.82;89.58
69214;BME280;56325;47.030;18.518;2022-09-29T22:10:14;99470.47;;;13.88;89.32
69214;BME280;56325;47.030;18.518;2022-09-29T22:12:50;99480.03;;;13.82;89.43
69214;BME280;56325;47.030;18.518;2022-09-29T22:15:24;99476.50;;;13.81;89.30
69214;BME280;56325;47.030;18.518;2022-09-29T22:18:00;99496.34;;;13.74;89.72
69214;BME280;56325;47.030;18.518;2022-09-29T22:20:37;99501.09;;;13.73;90.07
69214;BME280;56325;47.030;18.518;2022-09-29T22:23:14;99506.37;;;13.77;89.97
69214;BME280;56325;47.030;18.518;2022-09-29T22:25:49;99470.22;;;13.81;89.68
69214;BME280;56325;47.030;18.518;2022-09-29T22:28:25;99461.66;;;13.73;89.50
69214;BME280;56325;47.030;18.518;2022-09-29T22:36:40;99497.59;;;13.78;89.42
69214;BME280;56325;47.030;18.518;2022-09-29T22:39:14;99528.41;;;13.55;90.79
69214;BME280;56325;47.030;18.518;2022-09-29T22:41:54;99560.47;;;13.35;92.26
69214;BME280;56325;47.030;18.518;2022-09-29T22:44:30;99608.62;;;13.29;93.20
69214;BME280;56325;47.030;18.518;2022-09-29T22:47:05;99626.00;;;13.09;95.13
69214;BME280;56325;47.030;18.518;2022-09-29T22:49:39;99625.28;;;13.14;95.18
69214;BME280;56325;47.030;18.518;2022-09-29T22:52:14;99590.63;;;13.07;96.01
69214;BME280;56325;47.030;18.518;2022-09-29T22:54:48;99570.59;;;13.12;96.40
69214;BME280;56325;47.030;18.518;2022-09-29T22:57:24;99549.84;;;13.23;96.13
69214;BME280;56325;47.030;18.518;2022-09-29T22:59:58;99538.84;;;13.28;95.80
69214;BME280;56325;47.030;18.518;2022-09-29T23:02:33;99570.28;;;13.42;94.98
69214;BME280;56325;47.030;18.518;2022-09-29T23:05:08;99578.25;;;13.29;95.94
69214;BME280;56325;47.030;18.518;2022-09-29T23:11:01;99551.25;;;13.50;94.63
69214;BME280;56325;47.030;18.518;2022-09-29T23:13:39;99526.34;;;13.38;94.98
69214;BME280;56325;47.030;18.518;2022-09-29T23:16:16;99515.78;;;13.37;95.39
69214;BME280;56325;47.030;18.518;2022-09-29T23:18:52;99536.94;;;13.51;95.29
69214;BME280;56325;47.030;18.518;2022-09-29T23:21:27;99528.66;;;13.51;94.87
69214;BME280;56325;47.030;18.518;2022-09-29T23:24:01;99526.91;;;13.54;94.35
69214;BME280;56325;47.030;18.518;2022-09-29T23:26:35;99532.97;;;13.63;93.96
69214;BME280;56325;47.030;18.518;2022-09-29T23:29:12;99534.19;;;13.57;94.16
69214;BME280;56325;47.030;18.518;2022-09-29T23:31:46;99542.75;;;13.59;94.39
69214;BME280;56325;47.030;18.518;2022-09-29T23:34:21;99545.28;;;13.68;94.18
69214;BME280;56325;47.030;18.518;2022-09-29T23:36:56;99536.28;;;13.78;93.75
69214;BME280;56325;47.030;18.518;2022-09-29T23:39:31;99516.16;;;13.67;94.08
69214;BME280;56325;47.030;18.518;2022-09-29T23:42:04;99512.41;;;13.75;93.63
69214;BME280;56325;47.030;18.518;2022-09-29T23:44:41;99519.22;;;13.80;93.24
69214;BME280;56325;47.030;18.518;2022-09-29T23:47:15;99507.88;;;13.72;93.51
69214;BME280;56325;47.030;18.518;2022-09-29T23:49:50;99501.09;;;13.73;93.59
69214;BME280;56325;47.030;18.518;2022-09-29T23:52:24;99499.34;;;13.76;93.05
69214;BME280;56325;47.030;18.518;2022-09-29T23:54:59;99493.81;;;13.76;92.90
69214;BME280;56325;47.030;18.518;2022-09-29T23:57:33;99493.06;;;13.75;92.26
